Glasston, North Dakota
Current Conditions -  °F | °C
As of 5:15 PM on Wednesday 17 Dec 2014 (Local Time) from K2C8 Reporting Station
Haze Haze  
Wind Chill: 14°   Ceiling: Unl
Heat Index: 14°   Visibility: 6mi
Dew Point: 10°   Wind: 3mph
Humidity: 86%   Direction: 90°E
Pressure: 30.32"   Gusts: NA
Location:  48.71°N, 97.45°W
Report Text: K2C8 172315Z AUTO 09003KT 6SM BR CLR M10/M12 A3032 RMK AO2
Loading
Personal Weather Stations






























Interactive Weather Map New forecast layout! Learn more

10-Day Weather Forecast

Advertisements
Track Severe Weather on mobile